createdAt,value
2023-04-18T00:02:17.556Z,100.00
2023-04-18T00:04:48.204Z,100.00
2023-04-18T00:07:17.181Z,100.00
2023-04-18T00:09:44.842Z,100.00
2023-04-18T00:12:12.480Z,100.00
2023-04-18T00:14:41.116Z,100.00
2023-04-18T00:20:30.731Z,100.00
2023-04-18T00:23:00.642Z,100.00
2023-04-18T00:25:27.687Z,100.00
2023-04-18T00:27:55.038Z,100.00
2023-04-18T00:30:22.113Z,100.00
2023-04-18T00:32:49.426Z,100.00
2023-04-18T00:35:19.782Z,100.00
2023-04-18T00:37:47.001Z,100.00
2023-04-18T00:40:16.662Z,100.00
2023-04-18T00:42:43.810Z,100.00
2023-04-18T00:45:11.216Z,100.00
2023-04-18T00:47:38.486Z,100.00
2023-04-18T00:50:06.888Z,100.00
2023-04-18T00:52:36.010Z,100.00
2023-04-18T00:55:06.697Z,100.00
2023-04-18T00:57:34.459Z,100.00
2023-04-18T01:00:10.303Z,100.00
2023-04-18T01:02:40.079Z,100.00
2023-04-18T01:05:08.739Z,100.00
2023-04-18T01:07:41.710Z,100.00
2023-04-18T01:10:10.790Z,100.00
2023-04-18T01:12:38.351Z,100.00
2023-04-18T01:15:05.917Z,100.00
2023-04-18T01:17:35.557Z,100.00
2023-04-18T01:24:15.067Z,100.00
2023-04-18T01:26:44.220Z,100.00
2023-04-18T01:29:11.946Z,100.00
2023-04-18T01:31:40.344Z,100.00
2023-04-18T01:34:08.442Z,100.00
2023-04-18T01:36:36.333Z,100.00
2023-04-18T01:39:03.919Z,100.00
2023-04-18T01:41:33.162Z,100.00
2023-04-18T01:44:00.930Z,100.00
2023-04-18T01:46:29.085Z,100.00
2023-04-18T01:48:57.264Z,100.00
2023-04-18T01:51:24.725Z,100.00
2023-04-18T01:53:53.958Z,100.00
2023-04-18T01:56:21.397Z,100.00
2023-04-18T01:58:48.645Z,100.00
2023-04-18T02:01:15.729Z,100.00
2023-04-18T02:03:43.310Z,100.00
2023-04-18T02:06:10.627Z,100.00
2023-04-18T02:08:37.962Z,100.00
2023-04-18T02:11:05.604Z,100.00
2023-04-18T02:13:33.001Z,100.00
2023-04-18T02:16:00.111Z,100.00
2023-04-18T02:18:27.653Z,100.00
2023-04-18T02:20:54.865Z,100.00
2023-04-18T02:23:22.770Z,100.00
2023-04-18T02:25:50.896Z,100.00
2023-04-18T02:28:18.336Z,100.00
2023-04-18T02:30:45.254Z,100.00
2023-04-18T02:33:12.428Z,100.00
2023-04-18T02:35:40.748Z,100.00
2023-04-18T02:38:09.397Z,100.00
2023-04-18T02:40:36.501Z,100.00
2023-04-18T02:43:03.809Z,100.00
2023-04-18T02:45:30.906Z,100.00
2023-04-18T02:48:01.664Z,100.00
2023-04-18T02:50:29.541Z,100.00
2023-04-18T02:52:57.900Z,100.00
2023-04-18T02:55:32.382Z,100.00
2023-04-18T02:58:01.112Z,100.00
2023-04-18T03:00:55.464Z,100.00
2023-04-18T03:04:01.720Z,100.00
2023-04-18T03:06:34.190Z,100.00
2023-04-18T03:09:03.741Z,100.00
2023-04-18T03:11:34.243Z,100.00
2023-04-18T03:14:02.200Z,100.00
2023-04-18T03:16:37.596Z,100.00
2023-04-18T03:19:06.532Z,100.00
2023-04-18T03:21:34.046Z,100.00
2023-04-18T03:24:01.745Z,100.00
2023-04-18T03:26:28.831Z,100.00
2023-04-18T03:28:57.265Z,100.00
2023-04-18T03:31:25.180Z,100.00
2023-04-18T03:33:52.810Z,100.00
2023-04-18T03:36:25.284Z,100.00
2023-04-18T03:38:55.097Z,100.00
2023-04-18T03:41:22.385Z,100.00
2023-04-18T03:43:49.885Z,100.00
2023-04-18T03:46:17.661Z,100.00
2023-04-18T03:48:45.815Z,100.00
2023-04-18T03:51:12.768Z,100.00
2023-04-18T03:53:40.564Z,100.00
2023-04-18T03:56:07.879Z,100.00
2023-04-18T03:58:47.763Z,100.00
2023-04-18T04:01:14.969Z,100.00
2023-04-18T04:03:42.454Z,100.00
2023-04-18T04:06:09.731Z,100.00
2023-04-18T04:08:37.360Z,100.00
2023-04-18T04:11:04.334Z,100.00
2023-04-18T04:13:32.292Z,100.00
2023-04-18T04:16:00.244Z,100.00
2023-04-18T04:18:31.393Z,100.00
2023-04-18T04:21:01.148Z,100.00
2023-04-18T04:23:42.951Z,100.00
2023-04-18T04:26:16.070Z,100.00
2023-04-18T04:28:51.690Z,100.00
2023-04-18T04:31:22.813Z,100.00
2023-04-18T04:33:50.747Z,100.00
2023-04-18T04:36:21.560Z,100.00
2023-04-18T04:38:50.119Z,100.00
2023-04-18T04:41:18.532Z,100.00
2023-04-18T04:43:46.879Z,100.00
2023-04-18T04:46:20.000Z,100.00
2023-04-18T04:48:50.093Z,100.00
2023-04-18T04:51:18.809Z,100.00
2023-04-18T04:53:46.657Z,99.96
2023-04-18T04:56:13.725Z,99.19
2023-04-18T04:58:40.998Z,98.83
2023-04-18T05:01:24.384Z,98.76
2023-04-18T05:03:52.816Z,98.70
2023-04-18T05:06:20.964Z,98.17
2023-04-18T05:08:49.104Z,98.03
2023-04-18T05:11:17.047Z,98.11
2023-04-18T05:13:44.286Z,97.96
2023-04-18T05:16:11.632Z,98.18
2023-04-18T05:18:41.346Z,97.71
2023-04-18T05:21:08.555Z,97.35
2023-04-18T05:23:37.048Z,96.59
2023-04-18T05:26:05.425Z,96.12
2023-04-18T05:28:33.423Z,95.99
2023-04-18T05:31:03.577Z,96.14
2023-04-18T05:33:31.884Z,95.66
2023-04-18T05:35:59.411Z,95.77
2023-04-18T05:38:26.990Z,94.33
2023-04-18T05:40:56.007Z,93.68
2023-04-18T05:43:24.728Z,94.45
2023-04-18T05:45:57.229Z,94.20
2023-04-18T05:48:25.361Z,94.38
2023-04-18T05:50:52.347Z,94.34
2023-04-18T05:53:19.861Z,94.31
2023-04-18T05:55:48.750Z,94.41
2023-04-18T05:58:16.612Z,94.36
2023-04-18T06:00:43.765Z,94.17
2023-04-18T06:03:11.799Z,94.42
2023-04-18T06:05:41.305Z,93.73
2023-04-18T06:08:08.919Z,93.54
2023-04-18T06:10:37.727Z,94.03
2023-04-18T06:13:06.719Z,93.18
2023-04-18T06:15:34.996Z,93.02
2023-04-18T06:18:02.325Z,92.79
2023-04-18T06:20:29.545Z,93.22
2023-04-18T06:22:57.022Z,93.48
2023-04-18T06:25:24.881Z,92.83
2023-04-18T06:27:52.300Z,92.77
2023-04-18T06:30:22.210Z,92.73
2023-04-18T06:32:49.715Z,92.04
2023-04-18T06:35:17.163Z,92.24
2023-04-18T06:37:45.005Z,92.02
2023-04-18T06:40:12.482Z,91.29
2023-04-18T06:42:39.856Z,90.67
2023-04-18T06:45:07.439Z,90.68
2023-04-18T06:47:35.124Z,90.69
2023-04-18T06:50:02.116Z,90.54
2023-04-18T06:52:29.733Z,90.03
2023-04-18T06:54:56.726Z,90.04
2023-04-18T06:57:24.257Z,90.04
2023-04-18T06:59:51.291Z,89.96
2023-04-18T07:02:18.922Z,89.77
2023-04-18T07:04:46.137Z,89.28
2023-04-18T07:07:13.528Z,89.73
2023-04-18T07:09:40.374Z,89.76
2023-04-18T07:12:08.281Z,89.76
2023-04-18T07:14:35.724Z,89.23
2023-04-18T07:17:03.658Z,88.78
2023-04-18T07:19:30.718Z,88.80
2023-04-18T07:21:58.798Z,88.88
2023-04-18T07:24:25.793Z,88.69
2023-04-18T07:26:55.029Z,88.12
2023-04-18T07:29:22.145Z,88.17
2023-04-18T07:31:49.983Z,87.89
2023-04-18T07:34:17.496Z,87.15
2023-04-18T07:36:45.405Z,86.85
2023-04-18T07:39:12.333Z,86.02
2023-04-18T07:41:39.632Z,84.98
2023-04-18T07:44:06.882Z,84.76
2023-04-18T07:46:34.977Z,84.87
2023-04-18T07:49:02.448Z,84.97
2023-04-18T07:51:32.968Z,84.19
2023-04-18T07:54:00.229Z,83.40
2023-04-18T07:56:27.861Z,83.12
2023-04-18T07:58:54.968Z,84.08
2023-04-18T08:01:24.799Z,83.60
2023-04-18T08:03:53.628Z,82.28
2023-04-18T08:06:21.612Z,80.42
2023-04-18T08:08:48.848Z,81.08
2023-04-18T08:11:16.090Z,82.04
2023-04-18T08:13:43.439Z,81.08
2023-04-18T08:16:10.897Z,80.92
2023-04-18T08:18:39.249Z,80.88
2023-04-18T08:21:07.962Z,81.26
2023-04-18T08:23:35.609Z,81.05
2023-04-18T08:26:03.047Z,81.40
2023-04-18T08:28:33.497Z,81.00
2023-04-18T08:31:02.046Z,79.51
2023-04-18T08:33:29.953Z,78.70
2023-04-18T08:35:57.837Z,78.90
2023-04-18T08:38:24.908Z,79.02
2023-04-18T08:40:52.390Z,77.79
2023-04-18T08:43:19.365Z,77.09
2023-04-18T08:45:46.662Z,76.93
2023-04-18T08:48:15.139Z,76.15
2023-04-18T08:50:42.774Z,76.20
2023-04-18T08:53:10.108Z,75.89
2023-04-18T08:55:37.826Z,75.49
2023-04-18T08:58:06.953Z,75.78
2023-04-18T09:00:34.322Z,74.98
2023-04-18T09:03:03.896Z,74.51
2023-04-18T09:05:31.929Z,74.83
2023-04-18T09:07:58.749Z,73.64
2023-04-18T09:10:33.293Z,73.44
2023-04-18T09:13:03.388Z,72.91
2023-04-18T09:15:31.362Z,72.39
2023-04-18T09:18:00.365Z,71.46
2023-04-18T09:20:38.459Z,72.07
2023-04-18T09:23:11.601Z,71.01
2023-04-18T09:25:46.648Z,69.87
2023-04-18T09:28:28.816Z,71.01
2023-04-18T09:30:58.494Z,70.93
2023-04-18T09:33:33.088Z,67.86
2023-04-18T09:36:22.041Z,67.67
2023-04-18T09:38:56.020Z,67.62
2023-04-18T09:41:24.664Z,66.63
2023-04-18T09:44:12.506Z,66.33
2023-04-18T09:46:45.240Z,66.80
2023-04-18T09:49:14.527Z,67.50
2023-04-18T09:51:43.613Z,66.79
2023-04-18T09:54:15.095Z,67.27
2023-04-18T09:56:45.141Z,66.80
2023-04-18T09:59:14.096Z,66.46
2023-04-18T10:01:47.410Z,66.63
2023-04-18T10:04:16.907Z,67.47
2023-04-18T10:06:47.052Z,66.01
2023-04-18T10:09:16.392Z,66.17
2023-04-18T10:11:44.576Z,65.32
2023-04-18T10:14:13.860Z,64.75
2023-04-18T10:16:45.567Z,64.25
2023-04-18T10:19:29.610Z,62.26
2023-04-18T10:22:02.203Z,61.75
2023-04-18T10:24:49.482Z,62.04
2023-04-18T10:27:17.922Z,62.66
2023-04-18T10:29:53.213Z,61.36
2023-04-18T10:32:23.548Z,60.99
2023-04-18T10:34:53.569Z,60.60
2023-04-18T10:37:21.332Z,60.60
2023-04-18T10:39:49.474Z,59.51
2023-04-18T10:42:17.260Z,59.35
2023-04-18T10:45:17.137Z,60.04
2023-04-18T10:47:45.301Z,60.45
2023-04-18T10:50:12.521Z,58.69
2023-04-18T10:52:40.384Z,59.53
2023-04-18T10:55:15.867Z,59.48
2023-04-18T10:57:48.646Z,58.75
2023-04-18T11:00:18.979Z,57.07
2023-04-18T11:02:53.147Z,55.64
2023-04-18T11:05:29.097Z,55.01
2023-04-18T11:07:56.417Z,54.39
2023-04-18T11:10:25.789Z,54.93
2023-04-18T11:12:54.807Z,54.94
2023-04-18T11:15:24.121Z,55.36
2023-04-18T11:18:03.126Z,53.99
2023-04-18T11:20:46.687Z,54.67
2023-04-18T11:23:25.049Z,54.35
2023-04-18T11:25:56.428Z,54.73
2023-04-18T11:28:28.656Z,54.29
2023-04-18T11:30:59.525Z,55.22
2023-04-18T11:33:28.151Z,55.23
2023-04-18T11:35:58.538Z,55.21
2023-04-18T11:38:31.084Z,55.11
2023-04-18T11:40:58.473Z,55.73
2023-04-18T11:43:25.916Z,55.22
2023-04-18T11:45:57.473Z,56.19
2023-04-18T11:48:42.428Z,56.50
2023-04-18T11:51:34.438Z,58.12
2023-04-18T11:54:02.253Z,59.34
2023-04-18T11:56:29.297Z,60.48
2023-04-18T11:58:57.004Z,61.04
2023-04-18T12:01:27.076Z,60.87
2023-04-18T12:04:08.426Z,60.22
2023-04-18T12:06:53.600Z,60.43
2023-04-18T12:09:25.324Z,60.24
2023-04-18T12:11:59.700Z,60.10
2023-04-18T12:14:27.732Z,60.39
2023-04-18T12:16:55.538Z,60.59
2023-04-18T12:19:30.251Z,60.60
2023-04-18T12:22:05.184Z,60.52
2023-04-18T12:24:33.033Z,60.13
2023-04-18T12:27:00.509Z,58.72
2023-04-18T12:29:29.203Z,58.00
2023-04-18T12:31:56.676Z,57.61
2023-04-18T12:34:24.052Z,57.67
2023-04-18T12:36:52.613Z,58.29
2023-04-18T12:39:19.932Z,59.11
2023-04-18T12:41:49.041Z,59.72
2023-04-18T12:44:17.799Z,60.74
2023-04-18T12:46:45.025Z,60.10
2023-04-18T12:49:12.476Z,59.52
2023-04-18T12:51:40.670Z,59.86
2023-04-18T12:54:08.147Z,59.20
2023-04-18T12:56:35.044Z,59.05
2023-04-18T12:59:02.566Z,58.29
2023-04-18T13:01:30.212Z,58.09
2023-04-18T13:04:10.868Z,58.21
2023-04-18T13:06:40.364Z,58.18
2023-04-18T13:09:08.171Z,57.75
2023-04-18T13:11:35.143Z,57.24
2023-04-18T13:14:02.524Z,57.07
2023-04-18T13:16:29.635Z,57.60
2023-04-18T13:18:57.024Z,58.66
2023-04-18T13:21:25.767Z,59.17
2023-04-18T13:23:53.286Z,58.44
2023-04-18T13:26:20.693Z,59.09
2023-04-18T13:28:48.200Z,59.00
2023-04-18T13:31:16.905Z,58.78
2023-04-18T13:33:44.889Z,59.38
2023-04-18T13:36:11.888Z,59.37
2023-04-18T13:38:39.663Z,59.23
2023-04-18T13:41:12.946Z,59.70
2023-04-18T13:43:41.844Z,58.73
2023-04-18T13:46:08.762Z,58.74
2023-04-18T13:48:36.255Z,58.02
2023-04-18T13:51:03.653Z,57.90
2023-04-18T13:53:31.257Z,57.81
2023-04-18T13:55:58.659Z,58.01
2023-04-18T13:58:25.929Z,58.17
2023-04-18T14:00:54.007Z,58.29
2023-04-18T14:03:21.674Z,58.56
2023-04-18T14:05:48.786Z,58.96
2023-04-18T14:08:16.061Z,59.20
2023-04-18T14:10:43.852Z,59.20
2023-04-18T14:13:11.092Z,59.68
2023-04-18T14:15:38.870Z,59.21
2023-04-18T14:18:06.868Z,59.43
2023-04-18T14:20:34.803Z,59.31
2023-04-18T14:23:02.233Z,58.59
2023-04-18T14:25:30.011Z,58.03
2023-04-18T14:28:11.003Z,57.90
2023-04-18T14:30:39.972Z,57.95
2023-04-18T14:33:09.945Z,56.87
2023-04-18T14:35:37.653Z,57.12
2023-04-18T14:38:05.258Z,56.19
2023-04-18T14:40:33.183Z,56.32
2023-04-18T14:43:01.430Z,54.88
2023-04-18T14:45:28.639Z,54.48
2023-04-18T14:47:56.297Z,53.70
2023-04-18T14:50:23.397Z,54.45
2023-04-18T14:52:51.284Z,54.49
2023-04-18T14:55:20.189Z,54.76
2023-04-18T14:57:47.967Z,54.69
2023-04-18T15:00:15.762Z,55.13
2023-04-18T15:02:43.650Z,55.44
2023-04-18T15:05:12.217Z,54.62
2023-04-18T15:07:40.847Z,55.08
2023-04-18T15:10:08.605Z,55.22
2023-04-18T15:12:36.454Z,54.91
2023-04-18T15:15:04.077Z,55.82
2023-04-18T15:17:32.257Z,54.97
2023-04-18T15:19:59.621Z,55.78
2023-04-18T15:22:26.867Z,55.91
2023-04-18T15:24:53.788Z,55.71
2023-04-18T15:27:21.958Z,55.54
2023-04-18T15:29:48.817Z,55.99
2023-04-18T15:32:16.858Z,55.77
2023-04-18T15:34:43.913Z,55.52
2023-04-18T15:37:11.790Z,55.79
2023-04-18T15:39:39.123Z,55.58
2023-04-18T15:42:07.185Z,55.80
2023-04-18T15:44:34.273Z,55.02
2023-04-18T15:47:01.886Z,55.10
2023-04-18T15:49:29.031Z,54.82
2023-04-18T15:51:56.918Z,55.20
2023-04-18T15:54:23.861Z,54.48
2023-04-18T15:56:52.000Z,54.73
2023-04-18T15:59:18.960Z,54.33
2023-04-18T16:01:46.419Z,54.93
2023-04-18T16:04:13.722Z,54.26
2023-04-18T16:06:41.858Z,53.63
2023-04-18T16:09:09.905Z,54.02
2023-04-18T16:11:37.207Z,53.56
2023-04-18T16:14:04.132Z,53.54
2023-04-18T16:16:31.741Z,53.51
2023-04-18T16:18:59.075Z,53.46
2023-04-18T16:21:26.321Z,53.71
2023-04-18T16:23:53.999Z,53.91
2023-04-18T16:26:21.770Z,53.83
2023-04-18T16:28:48.952Z,54.04
2023-04-18T16:31:16.419Z,54.54
2023-04-18T16:33:45.250Z,54.82
2023-04-18T16:36:13.423Z,54.93
2023-04-18T16:38:40.993Z,54.92
2023-04-18T16:41:08.479Z,55.31
2023-04-18T16:43:38.241Z,55.36
2023-04-18T16:46:05.694Z,55.39
2023-04-18T16:48:33.010Z,55.71
2023-04-18T16:51:00.685Z,55.62
2023-04-18T16:53:27.678Z,55.93
2023-04-18T16:55:55.026Z,56.19
2023-04-18T16:58:23.523Z,56.47
2023-04-18T17:00:52.660Z,56.59
2023-04-18T17:03:19.895Z,56.78
2023-04-18T17:05:47.274Z,56.94
2023-04-18T17:08:14.224Z,56.70
2023-04-18T17:10:42.020Z,57.04
2023-04-18T17:13:08.912Z,57.39
2023-04-18T17:15:36.573Z,57.16
2023-04-18T17:18:03.975Z,57.44
2023-04-18T17:20:31.680Z,57.72
2023-04-18T17:22:58.629Z,57.80
2023-04-18T17:25:26.189Z,57.67
2023-04-18T17:27:53.107Z,57.68
2023-04-18T17:30:20.494Z,57.73
2023-04-18T17:32:47.465Z,57.85
2023-04-18T17:35:14.877Z,57.91
2023-04-18T17:37:42.759Z,57.97
2023-04-18T17:40:11.668Z,58.29
2023-04-18T17:42:38.881Z,58.63
2023-04-18T17:45:08.331Z,58.92
2023-04-18T17:47:36.659Z,59.03
2023-04-18T17:50:04.775Z,59.34
2023-04-18T17:52:31.972Z,59.45
2023-04-18T17:55:01.530Z,59.39
2023-04-18T17:57:30.736Z,59.85
2023-04-18T17:59:58.185Z,59.61
2023-04-18T18:02:25.260Z,59.78
2023-04-18T18:04:53.114Z,59.92
2023-04-18T18:07:20.815Z,59.82
2023-04-18T18:09:48.021Z,59.40
2023-04-18T18:12:15.881Z,59.52
2023-04-18T18:14:43.434Z,58.95
2023-04-18T18:17:11.308Z,59.43
2023-04-18T18:19:38.750Z,59.89
2023-04-18T18:22:06.548Z,59.49
2023-04-18T18:24:33.817Z,59.46
2023-04-18T18:27:01.987Z,59.65
2023-04-18T18:29:29.153Z,59.84
2023-04-18T18:31:56.525Z,59.60
2023-04-18T18:34:24.217Z,59.78
2023-04-18T18:36:51.420Z,59.78
2023-04-18T18:39:18.735Z,59.76
2023-04-18T18:41:45.980Z,59.29
2023-04-18T18:44:13.202Z,59.57
2023-04-18T18:46:42.095Z,59.85
2023-04-18T18:49:10.590Z,59.57
2023-04-18T18:51:38.130Z,59.43
2023-04-18T18:54:05.518Z,59.57
2023-04-18T18:56:32.825Z,59.76
2023-04-18T18:59:00.211Z,59.49
2023-04-18T19:01:30.213Z,59.63
2023-04-18T19:03:57.951Z,59.90
2023-04-18T19:06:25.253Z,59.39
2023-04-18T19:08:52.690Z,59.47
2023-04-18T19:11:19.699Z,59.69
2023-04-18T19:13:47.304Z,60.00
2023-04-18T19:16:14.203Z,59.50
2023-04-18T19:18:46.828Z,59.85
2023-04-18T19:21:14.309Z,59.43
2023-04-18T19:23:42.160Z,59.17
2023-04-18T19:26:10.138Z,59.34
2023-04-18T19:28:37.438Z,59.34
2023-04-18T19:31:05.015Z,59.38
2023-04-18T19:33:32.396Z,59.20
2023-04-18T19:35:59.600Z,59.33
2023-04-18T19:38:26.990Z,59.80
2023-04-18T19:40:53.954Z,59.90
2023-04-18T19:43:21.472Z,59.79
2023-04-18T19:45:48.468Z,59.69
2023-04-18T19:48:15.835Z,59.68
2023-04-18T19:50:42.789Z,60.01
2023-04-18T19:53:11.586Z,59.94
2023-04-18T19:55:39.072Z,60.29
2023-04-18T19:58:06.545Z,60.02
2023-04-18T20:00:34.321Z,59.73
2023-04-18T20:03:02.190Z,59.89
2023-04-18T20:05:29.370Z,59.94
2023-04-18T20:07:56.721Z,60.22
2023-04-18T20:10:23.635Z,60.24
2023-04-18T20:12:51.200Z,60.59
2023-04-18T20:15:18.328Z,60.65
2023-04-18T20:17:45.741Z,60.97
2023-04-18T20:20:13.133Z,61.01
2023-04-18T20:22:41.914Z,60.77
2023-04-18T20:25:09.056Z,60.84
2023-04-18T20:27:36.433Z,60.83
2023-04-18T20:30:03.662Z,61.07
2023-04-18T20:32:31.116Z,61.48
2023-04-18T20:34:58.675Z,61.93
2023-04-18T20:37:27.932Z,62.29
2023-04-18T20:39:55.776Z,62.79
2023-04-18T20:42:23.648Z,62.85
2023-04-18T20:44:51.387Z,63.14
2023-04-18T20:47:18.536Z,63.63
2023-04-18T20:49:45.915Z,63.72
2023-04-18T20:52:14.528Z,63.96
2023-04-18T20:54:41.869Z,64.35
2023-04-18T20:57:09.047Z,64.67
2023-04-18T20:59:36.393Z,64.92
2023-04-18T21:02:03.905Z,65.41
2023-04-18T21:04:31.227Z,65.22
2023-04-18T21:06:58.452Z,65.49
2023-04-18T21:09:25.711Z,65.38
2023-04-18T21:11:52.872Z,65.65
2023-04-18T21:14:20.134Z,66.07
2023-04-18T21:16:47.649Z,66.24
2023-04-18T21:19:15.197Z,66.63
2023-04-18T21:21:43.757Z,66.69
2023-04-18T21:24:11.265Z,67.29
2023-04-18T21:26:38.871Z,67.45
2023-04-18T21:29:06.527Z,67.42
2023-04-18T21:31:35.053Z,67.50
2023-04-18T21:34:04.496Z,67.53
2023-04-18T21:36:32.712Z,67.83
2023-04-18T21:39:01.038Z,67.84
2023-04-18T21:41:28.606Z,68.26
2023-04-18T21:43:55.965Z,68.49
2023-04-18T21:46:23.168Z,68.32
2023-04-18T21:48:50.316Z,68.54
2023-04-18T21:51:17.766Z,68.23
2023-04-18T21:53:45.072Z,68.71
2023-04-18T21:56:12.463Z,68.38
2023-04-18T21:58:39.778Z,68.25
2023-04-18T22:01:07.152Z,68.97
2023-04-18T22:03:34.355Z,69.16
2023-04-18T22:06:01.999Z,68.50
2023-04-18T22:08:29.924Z,68.52
2023-04-18T22:10:59.066Z,68.91
2023-04-18T22:13:30.225Z,69.02
2023-04-18T22:15:58.343Z,69.51
2023-04-18T22:18:25.387Z,69.98
2023-04-18T22:20:53.804Z,70.12
2023-04-18T22:23:21.013Z,70.61
2023-04-18T22:25:48.682Z,70.46
2023-04-18T22:28:15.980Z,70.93
2023-04-18T22:30:43.848Z,71.31
2023-04-18T22:33:10.959Z,71.07
2023-04-18T22:35:38.115Z,71.40
2023-04-18T22:38:06.381Z,71.02
2023-04-18T22:40:33.689Z,71.12
2023-04-18T22:43:00.597Z,71.60
2023-04-18T22:45:27.975Z,72.02
2023-04-18T22:47:54.837Z,72.33
2023-04-18T22:50:22.357Z,72.77
2023-04-18T22:52:50.537Z,72.94
2023-04-18T22:55:19.957Z,73.36
2023-04-18T22:57:46.816Z,73.46
2023-04-18T23:00:15.023Z,73.73
2023-04-18T23:02:42.286Z,74.01
2023-04-18T23:05:10.882Z,74.29
2023-04-18T23:07:38.083Z,74.43
2023-04-18T23:10:07.101Z,74.14
2023-04-18T23:12:34.036Z,74.18
2023-04-18T23:15:01.565Z,73.63
2023-04-18T23:17:28.548Z,73.23
2023-04-18T23:19:55.944Z,73.38
2023-04-18T23:22:24.281Z,73.40
2023-04-18T23:24:51.644Z,73.33
2023-04-18T23:27:19.391Z,73.34
2023-04-18T23:29:48.757Z,73.83
2023-04-18T23:32:16.350Z,74.25
2023-04-18T23:34:45.510Z,74.53
2023-04-18T23:37:12.653Z,75.00
2023-04-18T23:39:39.847Z,75.43
2023-04-18T23:42:07.266Z,76.03
2023-04-18T23:44:34.408Z,76.54
2023-04-18T23:47:01.484Z,77.14
2023-04-18T23:49:28.909Z,77.49
2023-04-18T23:51:55.862Z,77.80
2023-04-18T23:54:23.073Z,78.03
2023-04-18T23:56:50.526Z,78.40
2023-04-18T23:59:18.125Z,78.13
